ADDS TAF Data INFO
IDs: Format: Raw Decoded Include METARs

Data at: 1042 UTC 19 Oct 2017

KLAL 190520Z 1906/2006 03006KT P6SM FEW015 SCT250
  FM190800 02005KT P6SM SCT010 SCT250
  FM191400 05010G14KT P6SM SCT035 SCT250
  FM191800 05012G22KT P6SM SCT045 SCT250 AMD NOT SKED TIL 191100